Time;durP1;ratioP1;P1;durP2;ratioP2;P2;SDS_P1;SDS_P2;PMS_P1;PMS_P2;Temp;Humidity;BMP_temperature;BMP_pressure;BME280_temperature;BME280_humidity;BME280_pressure;Samples;Min_cycle;Max_cycle;Signal;HPM_P1;HPM_P2
2021/11/02 00:01:03;;;;;;;0.60;0.60;;;;;;;;;;5007362;28;20030;-74
2021/11/02 00:03:29;;;;;;;0.20;0.20;;;;;;;;;;5005346;28;20038;-75
2021/11/02 00:05:55;;;;;;;0.73;0.73;;;;;;;;;;5007174;28;20137;-75
2021/11/02 00:08:21;;;;;;;0.10;0.10;;;;;;;;;;5005510;28;20025;-75
2021/11/02 00:10:47;;;;;;;0.82;0.82;;;;;;;;;;5006812;28;20038;-73
2021/11/02 00:13:13;;;;;;;0.20;0.20;;;;;;;;;;5005893;28;20044;-75
2021/11/02 00:15:40;;;;;;;0.10;0.10;;;;;;;;;;5006011;28;20502;-75
2021/11/02 00:18:07;;;;;;;0.03;0.03;;;;;;;;;;5008365;28;20121;-75
2021/11/02 00:20:37;;;;;;;0.38;0.38;;;;;;;;;;5007634;28;20076;-75
2021/11/02 00:23:03;;;;;;;0.40;0.22;;;;;;;;;;5010485;28;20129;-74
2021/11/02 00:25:30;;;;;;;0.65;0.28;;;;;;;;;;5009657;28;20038;-75
2021/11/02 00:27:56;;;;;;;0.20;0.20;;;;;;;;;;5006270;28;20103;-74
2021/11/02 00:30:22;;;;;;;0.00;0.00;;;;;;;;;;5010227;28;20030;-75
2021/11/02 00:32:50;;;;;;;0.40;0.40;;;;;;;;;;5008395;28;20038;-74
2021/11/02 00:35:17;;;;;;;0.40;0.40;;;;;;;;;;5011251;28;20037;-74
2021/11/02 00:37:43;;;;;;;0.40;0.40;;;;;;;;;;5005039;28;20033;-74
2021/11/02 00:40:11;;;;;;;0.10;0.10;;;;;;;;;;5007404;28;20561;-75
2021/11/02 00:42:42;;;;;;;0.60;0.60;;;;;;;;;;5007216;28;20503;-75
2021/11/02 00:45:08;;;;;;;;;;;;;;;;;;5009143;28;20038;-75
2021/11/02 00:47:34;;;;;;;0.10;0.10;;;;;;;;;;5008336;28;20352;-74
2021/11/02 00:50:01;;;;;;;0.32;0.32;;;;;;;;;;5006123;28;20080;-75
2021/11/02 00:52:29;;;;;;;0.85;0.85;;;;;;;;;;5008233;28;20053;-74
2021/11/02 00:54:55;;;;;;;0.10;0.10;;;;;;;;;;5008421;28;20041;-74
2021/11/02 00:57:22;;;;;;;0.17;0.17;;;;;;;;;;5005845;28;20029;-74
2021/11/02 00:59:48;;;;;;;0.52;0.45;;;;;;;;;;5006722;28;20113;-74
2021/11/02 01:02:14;;;;;;;0.43;0.43;;;;;;;;;;5006769;28;20037;-74
2021/11/02 01:04:40;;;;;;;0.57;0.57;;;;;;;;;;5010010;28;20026;-74
2021/11/02 01:07:07;;;;;;;0.45;0.45;;;;;;;;;;5011369;28;20392;-74
2021/11/02 01:09:33;;;;;;;0.17;0.17;;;;;;;;;;5007191;28;20038;-74
2021/11/02 01:11:59;;;;;;;0.28;0.20;;;;;;;;;;5016514;28;20099;-74
2021/11/02 01:14:25;;;;;;;0.32;0.32;;;;;;;;;;5006161;28;20489;-75
2021/11/02 01:16:51;;;;;;;0.47;0.47;;;;;;;;;;5005829;28;20026;-75
2021/11/02 01:19:17;;;;;;;3.63;1.08;;;;;;;;;;5006175;28;20022;-74
2021/11/02 01:21:43;;;;;;;0.22;0.10;;;;;;;;;;5011265;28;20096;-75
2021/11/02 01:24:09;;;;;;;0.20;0.20;;;;;;;;;;5010718;28;20473;-75
2021/11/02 01:26:35;;;;;;;0.30;0.28;;;;;;;;;;5011092;28;20497;-74
2021/11/02 01:29:00;;;;;;;0.60;0.60;;;;;;;;;;5009082;28;20034;-73
2021/11/02 01:31:26;;;;;;;0.63;0.17;;;;;;;;;;5018142;28;20057;-74
2021/11/02 01:33:52;;;;;;;0.05;0.05;;;;;;;;;;5011959;28;20025;-74
2021/11/02 01:36:18;;;;;;;0.00;0.00;;;;;;;;;;5011288;28;20037;-74
2021/11/02 01:38:45;;;;;;;0.20;0.20;;;;;;;;;;5012810;28;20021;-73
2021/11/02 01:41:14;;;;;;;2.28;0.40;;;;;;;;;;5016562;28;20668;-73
2021/11/02 01:43:40;;;;;;;0.68;0.68;;;;;;;;;;5013937;28;20082;-74
2021/11/02 01:46:19;;;;;;;0.65;0.63;;;;;;;;;;5010522;28;20033;-74
2021/11/02 01:48:45;;;;;;;0.17;0.17;;;;;;;;;;5011528;28;20048;-73
2021/11/02 01:51:12;;;;;;;0.20;0.20;;;;;;;;;;5012715;28;20030;-74
2021/11/02 01:53:38;;;;;;;0.85;0.47;;;;;;;;;;5010582;28;20120;-74
2021/11/02 01:56:04;;;;;;;2.92;1.15;;;;;;;;;;5010250;28;20168;-74
2021/11/02 01:58:30;;;;;;;0.65;0.45;;;;;;;;;;5009466;28;20581;-74
2021/11/02 02:00:57;;;;;;;0.08;0.08;;;;;;;;;;5010086;28;20042;-74
2021/11/02 02:03:26;;;;;;;0.68;0.68;;;;;;;;;;5008066;28;20028;-73
2021/11/02 02:06:04;;;;;;;0.60;0.35;;;;;;;;;;5010366;28;20065;-74
2021/11/02 02:08:49;;;;;;;0.40;0.40;;;;;;;;;;5009014;28;20160;-74
2021/11/02 02:11:30;;;;;;;0.20;0.20;;;;;;;;;;5010404;28;20030;-73
2021/11/02 02:14:08;;;;;;;0.30;0.30;;;;;;;;;;5009781;28;20062;-74
2021/11/02 02:16:40;;;;;;;0.60;0.43;;;;;;;;;;5007950;28;20084;-73
2021/11/02 02:19:31;;;;;;;0.20;0.20;;;;;;;;;;5008180;28;20040;-74
2021/11/02 02:22:15;;;;;;;0.28;0.28;;;;;;;;;;5007806;28;20041;-74
2021/11/02 02:24:48;;;;;;;0.05;0.05;;;;;;;;;;5012860;28;20030;-74
2021/11/02 02:27:32;;;;;;;4.07;0.93;;;;;;;;;;5008026;28;20061;-74
2021/11/02 02:29:59;;;;;;;1.02;0.75;;;;;;;;;;5007993;28;20038;-74
2021/11/02 02:32:26;;;;;;;1.10;0.45;;;;;;;;;;5014064;28;20369;-74
2021/11/02 02:34:55;;;;;;;0.30;0.30;;;;;;;;;;5009382;28;20037;-73
2021/11/02 02:37:23;;;;;;;0.43;0.43;;;;;;;;;;5009211;28;20038;-74
2021/11/02 02:39:49;;;;;;;0.60;0.55;;;;;;;;;;5011505;28;20563;-74
2021/11/02 02:42:17;;;;;;;0.20;0.20;;;;;;;;;;5010627;28;20481;-73
2021/11/02 02:44:45;;;;;;;0.38;0.38;;;;;;;;;;5008787;28;20104;-74
2021/11/02 02:47:11;;;;;;;0.05;0.05;;;;;;;;;;5011139;28;20045;-74
2021/11/02 02:49:37;;;;;;;0.85;0.85;;;;;;;;;;5009353;28;20030;-74
2021/11/02 02:52:03;;;;;;;0.43;0.43;;;;;;;;;;5011782;28;20029;-74
2021/11/02 02:54:29;;;;;;;0.57;0.30;;;;;;;;;;5014160;28;20034;-74
2021/11/02 02:56:56;;;;;;;0.20;0.20;;;;;;;;;;5008608;28;20477;-74
2021/11/02 02:59:22;;;;;;;0.45;0.43;;;;;;;;;;5010543;28;20092;-74
2021/11/02 03:01:49;;;;;;;0.47;0.47;;;;;;;;;;5008918;28;20057;-74
2021/11/02 03:04:20;;;;;;;3.63;0.80;;;;;;;;;;5008235;28;20068;-74
2021/11/02 03:06:47;;;;;;;1.10;0.55;;;;;;;;;;5009536;28;20223;-73
2021/11/02 03:09:14;;;;;;;0.40;0.40;;;;;;;;;;5009219;28;20024;-74
2021/11/02 03:11:41;;;;;;;0.00;0.00;;;;;;;;;;5010598;28;20444;-74
2021/11/02 03:14:09;;;;;;;1.20;1.02;;;;;;;;;;5010570;28;20029;-74
2021/11/02 03:16:45;;;;;;;3.83;1.45;;;;;;;;;;5008351;28;20030;-73
2021/11/02 03:44:31;;;;;;;0.90;0.52;;;;;;;;;;5008639;28;20551;-72
2021/11/02 03:49:56;;;;;;;1.33;1.05;;;;;;;;;;5007288;28;20068;-72
2021/11/02 03:55:00;;;;;;;0.52;0.52;;;;;;;;;;5009646;28;20030;-73
2021/11/02 03:57:36;;;;;;;0.30;0.30;;;;;;;;;;5008507;28;20036;-73
2021/11/02 04:23:11;;;;;;;0.68;0.65;;;;;;;;;;5008063;28;20048;-72
2021/11/02 04:25:53;;;;;;;1.90;1.10;;;;;;;;;;5013224;28;20030;-73
2021/11/02 04:28:17;;;;;;;1.58;0.85;;;;;;;;;;5007989;28;20042;-73
2021/11/02 04:30:54;;;;;;;0.50;0.50;;;;;;;;;;5008818;28;20037;-72
2021/11/02 05:09:44;;;;;;;0.28;0.28;;;;;;;;;;5007479;28;20048;-73
2021/11/02 05:12:47;;;;;;;1.58;0.75;;;;;;;;;;5011618;28;20840;-73
2021/11/02 05:48:32;;;;;;;0.70;0.70;;;;;;;;;;5015615;28;20053;-73
2021/11/02 05:51:11;;;;;;;1.20;0.80;;;;;;;;;;5007914;28;20022;-75
2021/11/02 05:54:08;;;;;;;1.38;1.27;;;;;;;;;;5009754;28;20147;-73
2021/11/02 05:57:00;;;;;;;2.35;0.90;;;;;;;;;;5007617;28;20374;-74
2021/11/02 05:59:30;;;;;;;1.27;1.17;;;;;;;;;;5006072;28;20058;-74
2021/11/02 06:02:10;;;;;;;3.80;1.00;;;;;;;;;;5008339;28;20006;-73
2021/11/02 06:07:30;;;;;;;4.82;1.20;;;;;;;;;;5008984;28;20049;-72
2021/11/02 06:10:04;;;;;;;0.47;0.47;;;;;;;;;;5009324;28;20040;-72
2021/11/02 06:29:17;;;;;;;0.57;0.57;;;;;;;;;;5010131;28;20044;-73
2021/11/02 06:31:54;;;;;;;1.35;0.93;;;;;;;;;;5017516;28;20114;-73
2021/11/02 06:34:55;;;;;;;0.38;0.38;;;;;;;;;;4999894;28;20500;-74
2021/11/02 06:40:18;;;;;;;0.57;0.57;;;;;;;;;;5011583;28;20034;-74
2021/11/02 06:43:06;;;;;;;0.20;0.20;;;;;;;;;;5011288;28;20553;-74
2021/11/02 06:46:02;;;;;;;0.70;0.70;;;;;;;;;;5013721;28;20784;-73
2021/11/02 06:48:39;;;;;;;0.70;0.70;;;;;;;;;;5016203;28;20475;-73
2021/11/02 06:56:56;;;;;;;0.55;0.55;;;;;;;;;;5009877;28;20041;-73
2021/11/02 07:16:30;;;;;;;1.40;1.23;;;;;;;;;;5009428;28;20110;-74
2021/11/02 07:19:00;;;;;;;3.30;2.58;;;;;;;;;;5005833;28;20030;-74
2021/11/02 07:21:36;;;;;;;1.13;1.02;;;;;;;;;;5012328;28;20046;-76
2021/11/02 07:24:06;;;;;;;1.13;0.93;;;;;;;;;;5009234;28;20118;-73
2021/11/02 08:45:42;;;;;;;0.55;0.55;;;;;;;;;;5007900;28;20041;-73
2021/11/02 08:48:08;;;;;;;1.15;1.00;;;;;;;;;;5007877;28;20026;-72
2021/11/02 08:50:41;;;;;;;1.35;1.02;;;;;;;;;;5008143;28;20099;-73
2021/11/02 08:53:08;;;;;;;2.13;0.98;;;;;;;;;;5008032;28;20389;-72
2021/11/02 08:55:35;;;;;;;1.27;0.85;;;;;;;;;;5008192;28;20026;-73
2021/11/02 08:58:00;;;;;;;1.08;0.85;;;;;;;;;;5012294;28;20605;-73
2021/11/02 09:00:26;;;;;;;1.80;0.77;;;;;;;;;;5016515;28;20025;-73
2021/11/02 09:02:54;;;;;;;1.13;1.02;;;;;;;;;;5011660;28;20143;-72
2021/11/02 09:05:23;;;;;;;6.93;2.10;;;;;;;;;;5008259;28;20241;-72
2021/11/02 09:07:50;;;;;;;13.38;1.75;;;;;;;;;;5007836;28;20508;-72
2021/11/02 09:10:19;;;;;;;8.73;1.13;;;;;;;;;;5007557;28;20030;-73
2021/11/02 09:12:46;;;;;;;0.63;0.63;;;;;;;;;;5007621;28;20030;-72
2021/11/02 09:15:14;;;;;;;0.35;0.35;;;;;;;;;;5007749;28;20026;-72
2021/11/02 09:17:44;;;;;;;0.65;0.52;;;;;;;;;;5006644;28;20026;-73
2021/11/02 09:20:11;;;;;;;2.20;1.92;;;;;;;;;;5007833;28;20049;-73
2021/11/02 09:22:37;;;;;;;0.45;0.40;;;;;;;;;;5007645;28;20485;-73
2021/11/02 09:25:03;;;;;;;1.02;1.02;;;;;;;;;;5007452;28;20473;-72
2021/11/02 09:27:30;;;;;;;2.10;1.45;;;;;;;;;;5007872;28;20037;-73
2021/11/02 09:29:58;;;;;;;1.30;0.93;;;;;;;;;;5007744;28;20033;-73
2021/11/02 09:32:24;;;;;;;3.42;1.92;;;;;;;;;;5007404;28;20035;-73
2021/11/02 09:34:50;;;;;;;0.75;0.75;;;;;;;;;;5007928;28;20216;-73
2021/11/02 09:37:17;;;;;;;1.27;1.17;;;;;;;;;;5007705;28;20080;-73
2021/11/02 09:39:50;;;;;;;2.47;1.15;;;;;;;;;;5007335;28;20432;-73
2021/11/02 09:42:52;;;;;;;0.57;0.57;;;;;;;;;;5010843;28;20029;-72
2021/11/02 09:45:40;;;;;;;2.72;1.33;;;;;;;;;;4951582;28;20428;-72
2021/11/02 09:48:15;;;;;;;24.10;0.90;;;;;;;;;;4989885;28;20066;-73
2021/11/02 09:50:51;;;;;;;2.40;1.60;;;;;;;;;;5004297;28;20504;-72
2021/11/02 09:53:50;;;;;;;4.28;2.05;;;;;;;;;;5010606;28;20032;-72
2021/11/02 09:56:37;;;;;;;0.75;0.70;;;;;;;;;;4973327;28;20493;-73
2021/11/02 09:59:22;;;;;;;0.38;0.38;;;;;;;;;;5008016;28;20125;-73
2021/11/02 10:02:03;;;;;;;1.38;1.27;;;;;;;;;;4998753;28;20030;-72
2021/11/02 10:04:42;;;;;;;3.42;1.95;;;;;;;;;;5012411;28;20022;-73
2021/11/02 10:07:13;;;;;;;1.58;1.08;;;;;;;;;;5012300;28;20401;-73
2021/11/02 10:10:00;;;;;;;1.38;1.17;;;;;;;;;;5010335;28;20080;-72
2021/11/02 10:12:41;;;;;;;14.07;1.73;;;;;;;;;;5010685;28;20034;-73
2021/11/02 10:15:16;;;;;;;1.13;1.02;;;;;;;;;;5010425;28;20540;-72
2021/11/02 10:17:49;;;;;;;2.83;1.80;;;;;;;;;;5010632;28;20076;-72
2021/11/02 10:20:34;;;;;;;0.63;0.63;;;;;;;;;;5009974;28;20103;-72
2021/11/02 10:23:21;;;;;;;1.52;1.42;;;;;;;;;;5010874;28;20037;-72
2021/11/02 10:26:00;;;;;;;0.50;0.50;;;;;;;;;;5008559;28;20361;-72
2021/11/02 10:28:48;;;;;;;2.45;1.52;;;;;;;;;;5010050;28;20030;-73
2021/11/02 10:31:28;;;;;;;2.00;1.50;;;;;;;;;;5010095;28;20227;-73
2021/11/02 10:34:00;;;;;;;1.83;1.70;;;;;;;;;;5010204;28;20088;-73
2021/11/02 10:36:34;;;;;;;3.30;1.95;;;;;;;;;;5009720;28;20038;-73
2021/11/02 10:39:23;;;;;;;5.05;1.33;;;;;;;;;;5010346;28;20045;-72
2021/11/02 10:42:03;;;;;;;3.80;1.20;;;;;;;;;;5009775;28;20445;-72
2021/11/02 10:44:33;;;;;;;0.75;0.75;;;;;;;;;;5010054;28;20484;-73
2021/11/02 10:47:03;;;;;;;1.30;1.20;;;;;;;;;;5010202;28;20037;-73
2021/11/02 10:49:54;;;;;;;1.30;0.85;;;;;;;;;;5009992;28;20039;-73
2021/11/02 10:52:25;;;;;;;0.40;0.40;;;;;;;;;;5009898;28;20033;-73
2021/11/02 10:54:57;;;;;;;2.35;1.55;;;;;;;;;;5010377;28;20058;-73
2021/11/02 10:57:27;;;;;;;0.30;0.30;;;;;;;;;;5009609;28;20489;-73
2021/11/02 10:59:58;;;;;;;2.35;1.33;;;;;;;;;;5010036;28;20022;-73
2021/11/02 11:02:28;;;;;;;0.57;0.57;;;;;;;;;;5009733;28;20535;-73
2021/11/02 11:04:58;;;;;;;1.27;0.57;;;;;;;;;;5010193;28;20118;-73
2021/11/02 11:07:27;;;;;;;2.40;1.35;;;;;;;;;;5009042;28;20053;-73
2021/11/02 11:09:56;;;;;;;1.52;0.55;;;;;;;;;;5010637;28;20598;-73
2021/11/02 11:12:22;;;;;;;0.57;0.57;;;;;;;;;;5020937;28;20029;-72
2021/11/02 11:14:52;;;;;;;1.33;1.00;;;;;;;;;;5009617;28;20022;-73
2021/11/02 11:17:25;;;;;;;0.65;0.65;;;;;;;;;;5009213;28;20032;-73
2021/11/02 11:20:03;;;;;;;1.13;1.13;;;;;;;;;;5009356;28;20050;-72
2021/11/02 11:22:32;;;;;;;0.40;0.40;;;;;;;;;;5009273;28;20034;-71
2021/11/02 11:25:02;;;;;;;3.08;1.40;;;;;;;;;;5009783;28;20021;-72
2021/11/02 11:27:28;;;;;;;1.38;0.98;;;;;;;;;;5009918;28;20030;-71
2021/11/02 11:29:56;;;;;;;0.43;0.40;;;;;;;;;;5009084;28;20029;-72
2021/11/02 11:32:23;;;;;;;22.48;1.10;;;;;;;;;;5008993;28;20084;-71
2021/11/02 11:34:51;;;;;;;0.52;0.52;;;;;;;;;;5009594;28;20477;-72
2021/11/02 11:37:21;;;;;;;2.10;1.05;;;;;;;;;;5009349;28;20393;-72
2021/11/02 11:39:47;;;;;;;2.08;1.17;;;;;;;;;;5009601;28;20120;-72
2021/11/02 11:42:14;;;;;;;0.85;0.85;;;;;;;;;;5008960;28;20026;-71
2021/11/02 11:44:43;;;;;;;0.95;0.60;;;;;;;;;;5009267;28;20549;-72
2021/11/02 11:47:10;;;;;;;2.85;1.80;;;;;;;;;;5009437;28;20032;-71
2021/11/02 11:49:38;;;;;;;0.30;0.30;;;;;;;;;;5009088;28;20034;-72
2021/11/02 11:52:05;;;;;;;1.52;1.42;;;;;;;;;;5008959;28;20030;-72
2021/11/02 11:54:41;;;;;;;0.45;0.45;;;;;;;;;;5009161;28;20223;-72
2021/11/02 11:57:08;;;;;;;0.63;0.63;;;;;;;;;;5009479;28;20030;-72
2021/11/02 11:59:35;;;;;;;1.73;1.02;;;;;;;;;;5008507;28;20032;-71
2021/11/02 12:02:04;;;;;;;1.23;1.20;;;;;;;;;;5009225;28;20029;-74
2021/11/02 12:04:46;;;;;;;1.10;1.00;;;;;;;;;;5008186;28;20477;-71
2021/11/02 12:07:18;;;;;;;2.28;1.00;;;;;;;;;;5008757;28;20132;-71
2021/11/02 12:09:45;;;;;;;0.65;0.43;;;;;;;;;;5008573;28;20045;-71
2021/11/02 12:12:12;;;;;;;0.93;0.80;;;;;;;;;;5009017;28;20030;-72
2021/11/02 12:14:46;;;;;;;0.82;0.82;;;;;;;;;;5008572;28;20033;-72
2021/11/02 12:17:17;;;;;;;1.95;1.38;;;;;;;;;;5012760;28;20037;-71
2021/11/02 12:19:46;;;;;;;0.40;0.40;;;;;;;;;;5019700;28;20410;-72
2021/11/02 12:22:14;;;;;;;0.43;0.43;;;;;;;;;;5008314;28;20400;-71
2021/11/02 12:24:44;;;;;;;1.08;0.85;;;;;;;;;;4997864;28;20050;-71
2021/11/02 12:27:10;;;;;;;0.85;0.85;;;;;;;;;;5008572;28;20112;-71
2021/11/02 12:29:37;;;;;;;1.30;0.70;;;;;;;;;;5008923;28;20026;-72
2021/11/02 12:32:07;;;;;;;0.30;0.30;;;;;;;;;;5008562;28;20429;-72
2021/11/02 12:34:50;;;;;;;1.85;1.45;;;;;;;;;;5008258;28;20692;-72
2021/11/02 12:37:17;;;;;;;0.88;0.88;;;;;;;;;;5008496;28;20097;-72
2021/11/02 12:39:44;;;;;;;0.25;0.25;;;;;;;;;;5008164;28;20030;-72
2021/11/02 12:42:10;;;;;;;0.73;0.60;;;;;;;;;;5008331;28;20053;-72
2021/11/02 12:44:38;;;;;;;0.55;0.55;;;;;;;;;;5008290;28;20037;-73
2021/11/02 12:47:05;;;;;;;0.43;0.43;;;;;;;;;;5008341;28;20097;-71
2021/11/02 12:49:40;;;;;;;0.98;0.93;;;;;;;;;;5008536;28;20507;-72
2021/11/02 12:52:07;;;;;;;1.20;1.15;;;;;;;;;;5008836;28;20180;-72
2021/11/02 12:54:34;;;;;;;0.73;0.73;;;;;;;;;;5008362;28;20081;-71
2021/11/02 12:57:05;;;;;;;0.68;0.68;;;;;;;;;;5008161;28;20106;-72
2021/11/02 12:59:35;;;;;;;12.45;0.73;;;;;;;;;;5010214;28;20451;-72
2021/11/02 13:02:16;;;;;;;0.10;0.10;;;;;;;;;;5008138;28;20511;-71
2021/11/02 13:04:42;;;;;;;0.73;0.73;;;;;;;;;;5008820;28;20030;-72
2021/11/02 13:07:12;;;;;;;1.42;0.82;;;;;;;;;;5008355;28;20021;-73
2021/11/02 13:09:38;;;;;;;2.08;0.38;;;;;;;;;;5007928;28;20048;-72
2021/11/02 13:12:06;;;;;;;0.50;0.50;;;;;;;;;;5008588;28;20058;-72
2021/11/02 13:14:52;;;;;;;0.10;0.10;;;;;;;;;;5009830;28;20038;-72
2021/11/02 13:17:19;;;;;;;0.77;0.68;;;;;;;;;;5011989;28;20026;-73
2021/11/02 13:19:47;;;;;;;0.88;0.88;;;;;;;;;;5011927;28;20049;-72
2021/11/02 13:22:15;;;;;;;0.43;0.43;;;;;;;;;;5014545;28;20072;-73
2021/11/02 13:24:55;;;;;;;0.73;0.73;;;;;;;;;;5021403;28;20036;-72
2021/11/02 13:27:29;;;;;;;0.60;0.43;;;;;;;;;;5011900;28;20072;-72
2021/11/02 13:29:55;;;;;;;11.18;1.10;;;;;;;;;;5011835;28;20037;-72
2021/11/02 13:32:21;;;;;;;2.08;0.75;;;;;;;;;;5011469;28;20029;-72
2021/11/02 13:34:47;;;;;;;0.35;0.35;;;;;;;;;;5011916;28;20132;-72
2021/11/02 13:37:18;;;;;;;0.68;0.68;;;;;;;;;;5011692;28;20030;-73
2021/11/02 13:39:51;;;;;;;0.15;0.15;;;;;;;;;;5011734;28;20037;-71
2021/11/02 13:42:17;;;;;;;1.77;1.38;;;;;;;;;;5011504;28;20082;-72
2021/11/02 13:44:46;;;;;;;0.57;0.57;;;;;;;;;;5011409;28;20395;-72
2021/11/02 13:47:12;;;;;;;0.95;0.88;;;;;;;;;;5011902;28;20026;-71
2021/11/02 13:49:38;;;;;;;1.55;0.98;;;;;;;;;;5011213;28;20547;-73
2021/11/02 13:52:04;;;;;;;35.88;3.88;;;;;;;;;;5010781;28;20096;-73
2021/11/02 13:54:30;;;;;;;1.70;1.38;;;;;;;;;;5003898;28;20026;-71
2021/11/02 13:56:56;;;;;;;1.63;1.15;;;;;;;;;;5010889;28;20543;-70
2021/11/02 13:59:22;;;;;;;0.40;0.40;;;;;;;;;;5010574;28;20037;-73
2021/11/02 14:01:56;;;;;;;0.85;0.68;;;;;;;;;;5010254;28;20084;-78
2021/11/02 14:04:30;;;;;;;0.52;0.20;;;;;;;;;;5009617;28;20060;-78
2021/11/02 14:07:05;;;;;;;0.98;0.98;;;;;;;;;;5009614;28;20022;-72
2021/11/02 14:09:33;;;;;;;1.60;0.47;;;;;;;;;;5009316;28;20030;-72
2021/11/02 14:11:59;;;;;;;2.03;1.23;;;;;;;;;;5010978;28;20030;-73
2021/11/02 14:14:35;;;;;;;39.15;1.65;;;;;;;;;;5009600;28;20068;-72
2021/11/02 14:17:20;;;;;;;0.40;0.40;;;;;;;;;;5009065;28;20030;-77
2021/11/02 14:19:47;;;;;;;0.43;0.43;;;;;;;;;;5024423;28;20046;-77
2021/11/02 14:22:14;;;;;;;0.82;0.82;;;;;;;;;;5009076;28;20037;-77
2021/11/02 14:24:45;;;;;;;1.30;0.80;;;;;;;;;;5008951;28;20037;-79
2021/11/02 14:27:12;;;;;;;0.35;0.20;;;;;;;;;;5008213;28;20112;-77
2021/11/02 14:29:55;;;;;;;2.17;1.48;;;;;;;;;;5012278;28;20034;-77
2021/11/02 14:32:36;;;;;;;1.27;1.13;;;;;;;;;;5007262;28;20037;-71
2021/11/02 14:35:09;;;;;;;1.92;1.23;;;;;;;;;;5006979;28;20026;-69
2021/11/02 14:37:49;;;;;;;7.57;0.85;;;;;;;;;;5005982;28;20109;-72
2021/11/02 14:40:31;;;;;;;1.17;0.95;;;;;;;;;;5009620;28;20366;-73
2021/11/02 14:42:57;;;;;;;0.82;0.82;;;;;;;;;;5009268;28;20022;-70
2021/11/02 14:45:39;;;;;;;0.30;0.30;;;;;;;;;;5007243;28;20084;-72
2021/11/02 14:48:23;;;;;;;1.42;1.05;;;;;;;;;;5007966;28;20041;-71
2021/11/02 14:50:50;;;;;;;0.70;0.70;;;;;;;;;;5010791;28;20038;-72
2021/11/02 14:53:17;;;;;;;0.13;0.13;;;;;;;;;;5017209;28;20069;-74
2021/11/02 14:55:47;;;;;;;2.28;0.68;;;;;;;;;;5012188;28;20033;-73
2021/11/02 14:58:33;;;;;;;0.20;0.20;;;;;;;;;;5009866;28;20030;-73
2021/11/02 15:01:00;;;;;;;0.20;0.20;;;;;;;;;;5010070;28;20461;-75
2021/11/02 15:03:32;;;;;;;0.95;0.73;;;;;;;;;;5009519;28;20026;-77
2021/11/02 15:06:02;;;;;;;0.25;0.25;;;;;;;;;;5005241;28;20088;-73
2021/11/02 15:08:30;;;;;;;0.57;0.50;;;;;;;;;;5008531;28;20044;-75
2021/11/02 15:10:57;;;;;;;0.30;0.30;;;;;;;;;;5009637;28;20022;-73
2021/11/02 15:13:23;;;;;;;0.90;0.75;;;;;;;;;;4998795;28;20131;-73
2021/11/02 15:15:49;;;;;;;0.00;0.00;;;;;;;;;;5010383;28;20036;-74
2021/11/02 15:18:15;;;;;;;0.95;0.95;;;;;;;;;;5007568;28;20037;-75
2021/11/02 15:20:41;;;;;;;0.40;0.40;;;;;;;;;;5008566;28;20477;-73
2021/11/02 15:23:07;;;;;;;0.30;0.30;;;;;;;;;;5008548;28;20042;-74
2021/11/02 15:25:33;;;;;;;0.75;0.65;;;;;;;;;;5009116;28;20030;-73
2021/11/02 15:28:00;;;;;;;0.20;0.20;;;;;;;;;;5008890;28;20022;-73
2021/11/02 15:30:26;;;;;;;4.78;1.27;;;;;;;;;;5003074;28;20029;-73
2021/11/02 15:32:52;;;;;;;0.47;0.17;;;;;;;;;;5010637;28;20103;-75
2021/11/02 15:35:19;;;;;;;1.25;0.63;;;;;;;;;;5009163;28;20038;-75
2021/11/02 15:37:46;;;;;;;1.38;0.70;;;;;;;;;;5005380;28;20034;-75
2021/11/02 15:40:20;;;;;;;0.40;0.40;;;;;;;;;;5003747;28;20485;-75
2021/11/02 15:42:48;;;;;;;2.55;1.65;;;;;;;;;;5005348;28;20127;-74
2021/11/02 15:45:25;;;;;;;0.22;0.22;;;;;;;;;;5010981;28;20523;-74
2021/11/02 15:47:52;;;;;;;0.60;0.60;;;;;;;;;;5007123;28;20030;-74
2021/11/02 15:50:19;;;;;;;0.45;0.45;;;;;;;;;;5012086;28;20489;-74
2021/11/02 15:52:46;;;;;;;0.38;0.38;;;;;;;;;;5008447;28;20095;-74
2021/11/02 15:55:19;;;;;;;0.17;0.17;;;;;;;;;;5011572;28;20428;-73
2021/11/02 15:57:47;;;;;;;0.43;0.43;;;;;;;;;;5004496;28;20751;-72
2021/11/02 16:00:15;;;;;;;0.30;0.25;;;;;;;;;;5013638;28;20033;-76
2021/11/02 16:02:48;;;;;;;2.90;0.47;;;;;;;;;;5001718;28;20038;-73
2021/11/02 16:05:17;;;;;;;4.53;1.48;;;;;;;;;;5003439;28;20495;-73
2021/11/02 16:07:43;;;;;;;1.77;0.32;;;;;;;;;;5003229;28;20029;-74
2021/11/02 16:10:09;;;;;;;0.60;0.22;;;;;;;;;;5003880;28;20418;-72
2021/11/02 16:12:38;;;;;;;0.75;0.75;;;;;;;;;;5005452;28;20030;-73
2021/11/02 16:15:07;;;;;;;0.47;0.47;;;;;;;;;;5007295;28;20030;-73
2021/11/02 16:17:44;;;;;;;0.22;0.22;;;;;;;;;;5011834;28;20033;-73
2021/11/02 16:20:14;;;;;;;0.08;0.08;;;;;;;;;;5007820;28;20056;-72
2021/11/02 16:22:48;;;;;;;1.98;1.45;;;;;;;;;;5007907;28;20448;-74
2021/11/02 16:25:14;;;;;;;1.02;0.75;;;;;;;;;;5005730;28;20516;-71
2021/11/02 16:27:40;;;;;;;0.25;0.22;;;;;;;;;;5011904;28;20033;-73
2021/11/02 16:30:16;;;;;;;2.67;1.13;;;;;;;;;;5013505;28;20057;-73
2021/11/02 16:32:44;;;;;;;2.60;1.38;;;;;;;;;;5007819;28;20029;-73
2021/11/02 16:35:10;;;;;;;0.00;0.00;;;;;;;;;;5007028;28;20084;-73
2021/11/02 16:37:37;;;;;;;0.15;0.15;;;;;;;;;;5007076;28;20458;-74
2021/11/02 16:40:16;;;;;;;0.20;0.20;;;;;;;;;;5008157;28;20081;-73
2021/11/02 16:42:42;;;;;;;0.03;0.03;;;;;;;;;;5006813;28;20448;-74
2021/11/02 16:45:12;;;;;;;0.20;0.20;;;;;;;;;;5008979;28;20054;-74
2021/11/02 16:47:38;;;;;;;0.57;0.57;;;;;;;;;;5008241;28;20143;-76
2021/11/02 16:50:08;;;;;;;0.30;0.30;;;;;;;;;;5009731;28;20405;-74
2021/11/02 16:52:37;;;;;;;1.33;0.57;;;;;;;;;;5011535;28;20449;-75
2021/11/02 16:55:14;;;;;;;0.40;0.40;;;;;;;;;;5013149;28;20061;-74
2021/11/02 16:57:40;;;;;;;0.20;0.20;;;;;;;;;;5011025;28;20054;-73
2021/11/02 17:00:10;;;;;;;1.75;0.85;;;;;;;;;;5009109;28;20029;-73
2021/11/02 17:02:41;;;;;;;0.10;0.10;;;;;;;;;;5011703;28;20030;-73
2021/11/02 17:05:10;;;;;;;1.75;0.95;;;;;;;;;;5013418;28;20037;-73
2021/11/02 17:07:48;;;;;;;0.47;0.47;;;;;;;;;;5012478;28;20096;-73
2021/11/02 17:10:23;;;;;;;0.68;0.65;;;;;;;;;;5011850;28;20029;-74
2021/11/02 17:12:50;;;;;;;1.23;1.02;;;;;;;;;;5009591;28;20105;-72
2021/11/02 17:15:20;;;;;;;0.28;0.25;;;;;;;;;;5009701;28;20033;-85
2021/11/02 17:17:46;;;;;;;2.53;1.23;;;;;;;;;;5017958;28;20040;-79
2021/11/02 17:20:13;;;;;;;0.82;0.82;;;;;;;;;;5015845;28;20049;-73
2021/11/02 17:22:39;;;;;;;0.28;0.28;;;;;;;;;;5019065;28;20041;-73
2021/11/02 17:25:06;;;;;;;0.95;0.95;;;;;;;;;;5009838;28;20054;-75
2021/11/02 17:27:32;;;;;;;1.48;1.42;;;;;;;;;;5013772;28;20484;-75
2021/11/02 17:29:58;;;;;;;0.30;0.30;;;;;;;;;;5003475;28;20084;-78
2021/11/02 17:32:24;;;;;;;0.43;0.43;;;;;;;;;;5009706;28;20485;-76
2021/11/02 17:34:50;;;;;;;1.90;1.05;;;;;;;;;;5007828;28;20033;-70
2021/11/02 17:37:17;;;;;;;2.47;1.23;;;;;;;;;;5010640;28;20041;-69
2021/11/02 17:39:43;;;;;;;0.45;0.45;;;;;;;;;;5008162;28;20057;-70
2021/11/02 17:42:09;;;;;;;1.90;1.80;;;;;;;;;;5006812;28;20049;-69
2021/11/02 17:44:38;;;;;;;0.95;0.90;;;;;;;;;;5009413;28;20076;-68
2021/11/02 17:47:09;;;;;;;3.65;2.03;;;;;;;;;;5008222;28;20030;-69
2021/11/02 17:49:36;;;;;;;2.83;2.10;;;;;;;;;;5007314;28;20489;-69
2021/11/02 17:52:02;;;;;;;0.82;0.70;;;;;;;;;;5006773;28;20037;-68
2021/11/02 17:54:28;;;;;;;0.60;0.57;;;;;;;;;;5005735;28;20029;-68
2021/11/02 17:56:54;;;;;;;1.02;1.00;;;;;;;;;;5009884;28;20112;-68
2021/11/02 17:59:22;;;;;;;1.45;1.13;;;;;;;;;;5007688;28;20030;-69
2021/11/02 18:01:48;;;;;;;0.95;0.93;;;;;;;;;;5005680;28;20034;-70
2021/11/02 18:04:14;;;;;;;2.65;1.60;;;;;;;;;;5009972;28;20053;-70
2021/11/02 18:06:41;;;;;;;1.75;1.00;;;;;;;;;;5008468;28;20927;-70
2021/11/02 18:09:07;;;;;;;2.47;2.15;;;;;;;;;;5007692;28;20030;-71
2021/11/02 18:11:33;;;;;;;2.55;1.90;;;;;;;;;;5007061;28;20033;-71
2021/11/02 18:13:59;;;;;;;0.93;0.93;;;;;;;;;;5004922;28;20504;-72
2021/11/02 18:16:26;;;;;;;1.15;1.15;;;;;;;;;;5006130;28;20485;-72
2021/11/02 18:19:00;;;;;;;4.97;1.98;;;;;;;;;;5008238;28;20089;-72
2021/11/02 18:21:27;;;;;;;1.90;1.77;;;;;;;;;;5007352;28;20045;-71
2021/11/02 18:23:53;;;;;;;1.02;0.90;;;;;;;;;;5008172;28;20081;-70
2021/11/02 18:26:22;;;;;;;2.78;2.53;;;;;;;;;;5007740;28;20053;-71
2021/11/02 18:28:48;;;;;;;0.75;0.75;;;;;;;;;;5006634;28;20034;-71
2021/11/02 18:31:15;;;;;;;0.77;0.77;;;;;;;;;;5005828;28;20052;-71
2021/11/02 18:33:41;;;;;;;1.55;1.45;;;;;;;;;;5005083;28;20037;-71
2021/11/02 18:36:09;;;;;;;1.00;1.00;;;;;;;;;;5005971;28;20113;-71
2021/11/02 18:38:36;;;;;;;2.10;1.40;;;;;;;;;;5002610;28;20037;-70
2021/11/02 18:41:03;;;;;;;1.17;0.93;;;;;;;;;;5007504;28;20030;-70
2021/11/02 18:43:35;;;;;;;3.92;1.88;;;;;;;;;;5007565;28;20041;-71
2021/11/02 18:46:02;;;;;;;1.38;1.13;;;;;;;;;;5004744;28;20030;-70
2021/11/02 18:48:29;;;;;;;0.98;0.93;;;;;;;;;;5006733;28;20034;-71
2021/11/02 18:50:56;;;;;;;0.82;0.82;;;;;;;;;;5007499;28;20081;-71
2021/11/02 18:53:23;;;;;;;1.45;1.35;;;;;;;;;;5003018;28;20033;-70
2021/11/02 18:55:50;;;;;;;3.05;1.83;;;;;;;;;;5006203;28;20497;-71
2021/11/02 18:58:16;;;;;;;1.45;1.20;;;;;;;;;;5005599;28;20030;-72
2021/11/02 19:00:42;;;;;;;0.80;0.80;;;;;;;;;;5005970;28;20025;-73
2021/11/02 19:03:09;;;;;;;1.13;1.13;;;;;;;;;;5004898;28;20389;-72
2021/11/02 19:05:36;;;;;;;2.45;1.75;;;;;;;;;;5006457;28;20022;-71
2021/11/02 19:08:03;;;;;;;2.17;1.38;;;;;;;;;;5007129;28;20105;-69
2021/11/02 19:10:29;;;;;;;1.48;1.38;;;;;;;;;;5002972;28;20421;-68